This is the latest recevied weather packets stored in our database for station/object GW1476. If no packets are shown the sender has not sent any weather packets the latest 10 day(s).
| Time | Temp. | Humidity | Pressure | Rain* | Wind** | Luminosity | Snow |
|---|---|---|---|---|---|---|---|
| 1777913498 | 21.67° C | 64% | 1014.9 hPa | 0 mm | - | - | - |
| 1777911690 | 18.33° C | 72% | 1015.5 hPa | 0 mm | - | - | - |
| 1777911312 | 18.33° C | 72% | 1015.9 hPa | 0 mm | - | - | - |
| 1777910082 | 18.33° C | 72% | 1016.2 hPa | 0 mm | - | - | - |
| 1777908269 | 20° C | 66% | 1016.5 hPa | 0 mm | - | - | - |
| 1777907533 | 19.44° C | 67% | 1016.5 hPa | 0 mm | - | - | - |
| 1777906483 | 18.33° C | 70% | 1016.5 hPa | 0 mm | - | - | - |
| 1777903613 | 16.11° C | 69% | 1016.9 hPa | 0 mm | - | - | - |
| 1777902870 | 16.11° C | 70% | 1016.5 hPa | 0 mm | - | - | - |
| 1777902163 | 15.56° C | 69% | 1016.9 hPa | 0 mm | - | - | - |
| 1777898905 | 10° C | 88% | 1016.9 hPa | 0 mm | - | - | - |
| 1777896405 | 8.89° C | 92% | 1016.9 hPa | 0 mm | - | - | - |
| 1777895323 | 7.78° C | 95% | 1016.5 hPa | 0 mm | - | - | - |
| 1777892430 | 5.56° C | 99% | 1016.5 hPa | 0 mm | - | - | - |
| 1777888488 | 5° C | 99% | 1016.9 hPa | 0 mm | - | - | - |
| 1777888097 | 5.56° C | 99% | 1016.9 hPa | 0 mm | - | - | - |
| 1777885574 | 6.11° C | 99% | 1016.9 hPa | 0 mm | - | - | - |
| 1777884141 | 6.11° C | 99% | 1017.2 hPa | 0 mm | - | - | - |
| 1777882695 | 6.11° C | 99% | 1017.2 hPa | 0 mm | - | - | - |
| 1777882336 | 5.56° C | 99% | 1017.2 hPa | 0 mm | - | - | - |
| 1777880176 | 6.11° C | 99% | 1017.6 hPa | 0 mm | - | - | - |
| 1777873000 | 8.33° C | 89% | 1018.6 hPa | 0 mm | - | - | - |
| 1777868671 | 8.89° C | 86% | 1018.2 hPa | 0 mm | - | - | - |
| 1777867604 | 8.89° C | 85% | 1018.2 hPa | 0 mm | - | - | - |
| 1777865772 | 9.44° C | 81% | 1018.2 hPa | 0 mm | - | - | - |
* Rain since midnight (hover to see other rain measurements)
** Current wind speed in m/s (hover to see current wind gust speed)